Time;durP1;ratioP1;P1;durP2;ratioP2;P2;SDS_P1;SDS_P2;PMS_P1;PMS_P2;Temp;Humidity;BMP_temperature;BMP_pressure;BME280_temperature;BME280_humidity;BME280_pressure;Samples;Min_cycle;Max_cycle;Signal;HPM_P1;HPM_P2
2023/09/11 00:00:16;;;;;;;11.73;9.80;;;;;16.60;97085.00;;;;5030365;28;20232;-68
2023/09/11 00:03:07;;;;;;;11.10;9.97;;;;;16.70;97080.00;;;;5031604;28;20681;-68
2023/09/11 00:06:04;;;;;;;15.60;11.03;;;;;17.00;97067.00;;;;5023122;28;20197;-68
2023/09/11 00:08:53;;;;;;;12.10;10.00;;;;;16.90;97067.00;;;;5024408;28;20228;-68
2023/09/11 00:11:42;;;;;;;10.77;9.67;;;;;16.90;97068.00;;;;5033010;28;20196;-68
2023/09/11 00:14:31;;;;;;;11.07;9.60;;;;;16.80;97067.00;;;;5028978;28;20239;-67
2023/09/11 00:17:20;;;;;;;13.83;10.03;;;;;16.20;97065.00;;;;5029159;28;20202;-68
2023/09/11 00:20:12;;;;;;;14.77;9.43;;;;;15.80;97063.00;;;;5032879;28;20225;-68
2023/09/11 00:23:01;;;;;;;11.23;10.20;;;;;16.10;97063.00;;;;5027364;28;20252;-68
2023/09/11 00:25:50;;;;;;;11.87;9.80;;;;;16.50;97059.00;;;;5029625;28;20212;-67
2023/09/11 00:28:39;;;;;;;13.33;11.30;;;;;16.60;97058.00;;;;5029316;28;20877;-68
2023/09/11 00:31:28;;;;;;;11.73;10.53;;;;;16.20;97052.00;;;;5028580;28;20235;-68
2023/09/11 00:34:17;;;;;;;10.20;9.10;;;;;15.80;97050.00;;;;5028733;28;20233;-68
2023/09/11 00:37:08;;;;;;;13.60;9.60;;;;;16.00;97046.00;;;;5022240;28;20205;-67
2023/09/11 00:39:57;;;;;;;13.53;10.37;;;;;16.10;97053.00;;;;5031633;28;20225;-68
2023/09/11 00:42:46;;;;;;;14.07;12.23;;;;;16.10;97049.00;;;;5028630;28;20733;-68
2023/09/11 00:45:35;;;;;;;15.57;11.30;;;;;16.60;97050.00;;;;5035480;28;20817;-68
2023/09/11 00:48:24;;;;;;;13.33;11.50;;;;;16.90;97049.00;;;;5029192;28;20216;-67
2023/09/11 00:51:13;;;;;;;12.13;10.93;;;;;17.10;97043.00;;;;5033035;28;20204;-68
2023/09/11 00:54:04;;;;;;;14.40;10.73;;;;;16.70;97038.00;;;;5036584;28;20201;-68
2023/09/11 00:56:53;;;;;;;13.10;11.07;;;;;16.40;97041.00;;;;5025887;28;20212;-68
2023/09/11 00:59:44;;;;;;;11.33;10.03;;;;;16.10;97035.00;;;;5060607;22;20235;-70
2023/09/11 01:02:33;;;;;;;15.73;10.37;;;;;15.70;97032.00;;;;5067402;28;20207;-69
2023/09/11 01:05:24;;;;;;;13.60;10.07;;;;;15.60;97038.00;;;;5071035;28;20691;-70
2023/09/11 01:08:13;;;;;;;11.90;10.60;;;;;15.30;97032.00;;;;5076815;28;20230;-69
2023/09/11 01:11:03;;;;;;;14.40;9.70;;;;;15.60;97024.00;;;;5065267;28;20224;-68
2023/09/11 01:13:53;;;;;;;11.07;9.97;;;;;16.10;97034.00;;;;5065849;28;20656;-69
2023/09/11 01:16:46;;;;;;;13.90;10.83;;;;;16.00;97021.00;;;;5067354;28;20208;-68
2023/09/11 01:19:44;;;;;;;12.10;10.83;;;;;16.00;97025.00;;;;5067306;28;20224;-69
2023/09/11 01:22:44;;;;;;;12.17;10.87;;;;;16.10;97021.00;;;;5073733;28;20196;-69
2023/09/11 01:25:59;;;;;;;11.53;10.07;;;;;15.90;97018.00;;;;5067614;28;20196;-69
2023/09/11 01:29:08;;;;;;;11.87;10.67;;;;;16.00;97021.00;;;;5061551;28;20222;-69
2023/09/11 01:31:57;;;;;;;12.23;10.90;;;;;15.90;97013.00;;;;5061957;28;20204;-69
2023/09/11 01:34:46;;;;;;;12.73;10.23;;;;;16.00;97016.00;;;;5070076;28;20228;-69
2023/09/11 01:37:35;;;;;;;15.10;10.13;;;;;15.80;97024.00;;;;5068271;28;20203;-70
2023/09/11 01:40:26;;;;;;;13.07;11.43;;;;;15.60;97006.00;;;;5068392;28;20224;-69
2023/09/11 01:43:16;;;;;;;12.37;10.87;;;;;15.90;97014.00;;;;5064373;28;20208;-69
2023/09/11 01:46:07;;;;;;;13.53;11.47;;;;;16.20;97011.00;;;;5062856;28;20191;-69
2023/09/11 01:48:57;;;;;;;13.13;11.03;;;;;16.40;97012.00;;;;5066914;28;20204;-69
2023/09/11 01:51:46;;;;;;;12.17;10.97;;;;;16.10;97001.00;;;;5070806;28;20206;-69
2023/09/11 01:54:36;;;;;;;11.90;10.47;;;;;15.80;97009.00;;;;5067058;28;20211;-69
2023/09/11 01:57:27;;;;;;;12.87;11.57;;;;;15.70;97008.00;;;;5065409;28;20708;-69
2023/09/11 02:00:17;;;;;;;10.80;9.70;;;;;15.40;97003.00;;;;5068282;28;20252;-69
2023/09/11 02:03:08;;;;;;;12.73;10.27;;;;;15.10;97001.00;;;;5062578;28;20203;-69
2023/09/11 02:05:57;;;;;;;12.80;9.73;;;;;15.20;96989.00;;;;5067573;28;20643;-69
2023/09/11 02:08:46;;;;;;;12.63;11.33;;;;;15.40;96997.00;;;;5060770;28;20219;-70
2023/09/11 02:11:35;;;;;;;14.07;11.03;;;;;15.50;96993.00;;;;5067811;28;20214;-69
2023/09/11 02:14:24;;;;;;;11.83;10.63;;;;;15.40;96996.00;;;;5066909;28;20218;-69
2023/09/11 02:17:13;;;;;;;12.77;11.07;;;;;15.40;96997.00;;;;5062635;28;20211;-70
2023/09/11 02:20:04;;;;;;;11.77;10.27;;;;;15.20;96990.00;;;;5067484;28;20234;-70
2023/09/11 02:22:53;;;;;;;12.77;11.57;;;;;15.20;96998.00;;;;5070536;28;20695;-69
2023/09/11 02:25:42;;;;;;;11.63;10.43;;;;;15.30;96986.00;;;;5063090;28;20568;-69
2023/09/11 02:28:32;;;;;;;12.40;10.87;;;;;15.20;96998.00;;;;5071233;28;20215;-70
2023/09/11 02:31:21;;;;;;;14.03;11.60;;;;;15.40;96993.00;;;;5075753;28;20208;-69
2023/09/11 02:34:10;;;;;;;14.80;11.83;;;;;15.70;96985.00;;;;5071951;28;20204;-70
2023/09/11 02:37:00;;;;;;;14.47;10.80;;;;;15.70;96980.00;;;;5071259;28;20230;-69
2023/09/11 02:39:49;;;;;;;13.13;11.83;;;;;15.60;96978.00;;;;5071853;28;20227;-69
2023/09/11 02:42:38;;;;;;;14.73;10.67;;;;;15.60;96982.00;;;;5071689;28;20199;-69
2023/09/11 02:45:27;;;;;;;12.73;11.43;;;;;15.40;96973.00;;;;5070952;28;20210;-69
2023/09/11 02:48:16;;;;;;;11.67;9.03;;;;;15.00;96978.00;;;;5076054;28;20196;-69
2023/09/11 02:51:05;;;;;;;12.90;10.00;;;;;14.70;96971.00;;;;5066337;28;20306;-69
2023/09/11 02:53:56;;;;;;;15.70;11.27;;;;;14.60;96970.00;;;;5069150;28;20196;-70
2023/09/11 02:56:45;;;;;;;16.33;10.33;;;;;14.40;96963.00;;;;5070598;28;20223;-70
2023/09/11 02:59:35;;;;;;;16.07;11.83;;;;;14.60;96972.00;;;;5078017;28;20424;-68
2023/09/11 03:02:24;;;;;;;14.97;11.93;;;;;14.80;96979.00;;;;5068776;28;20215;-69
2023/09/11 03:05:13;;;;;;;14.27;11.47;;;;;14.90;96968.00;;;;5074403;28;20202;-69
2023/09/11 03:08:03;;;;;;;15.40;11.43;;;;;15.10;96968.00;;;;5066229;28;20212;-69
2023/09/11 03:10:53;;;;;;;13.63;11.93;;;;;15.10;96966.00;;;;5064379;28;20234;-69
2023/09/11 03:13:42;;;;;;;14.23;11.43;;;;;14.90;96964.00;;;;5067805;28;20582;-69
2023/09/11 03:16:31;;;;;;;12.97;11.37;;;;;15.00;96962.00;;;;5069956;28;20220;-69
2023/09/11 03:19:20;;;;;;;15.73;11.20;;;;;15.30;96969.00;;;;5069011;28;20224;-68
2023/09/11 03:22:09;;;;;;;16.50;11.23;;;;;15.50;96966.00;;;;5065663;28;20211;-69
2023/09/11 03:24:58;;;;;;;15.23;12.07;;;;;15.10;96959.00;;;;5069281;28;20207;-68
2023/09/11 03:27:49;;;;;;;14.27;12.00;;;;;15.10;96957.00;;;;5066165;28;20196;-69
2023/09/11 03:30:38;;;;;;;14.27;11.17;;;;;15.10;96950.00;;;;5069794;28;20227;-69
2023/09/11 03:33:27;;;;;;;13.87;11.63;;;;;14.90;96952.00;;;;5068711;28;20275;-69
2023/09/11 03:36:16;;;;;;;14.10;11.83;;;;;14.80;96946.00;;;;5070449;28;20220;-69
2023/09/11 03:39:06;;;;;;;11.50;10.30;;;;;14.70;96949.00;;;;5069632;28;20293;-69
2023/09/11 03:41:55;;;;;;;13.33;10.87;;;;;14.70;96944.00;;;;5065383;28;20366;-68
2023/09/11 03:44:45;;;;;;;11.20;10.03;;;;;14.30;96939.00;;;;5070039;28;20204;-70
2023/09/11 03:47:34;;;;;;;12.53;11.27;;;;;14.30;96934.00;;;;5069210;28;20294;-69
2023/09/11 03:50:23;;;;;;;14.10;11.03;;;;;14.40;96936.00;;;;5070654;28;20223;-69
2023/09/11 03:53:12;;;;;;;12.53;11.30;;;;;14.20;96939.00;;;;5069637;28;20208;-70
2023/09/11 03:56:02;;;;;;;11.50;9.13;;;;;14.10;96937.00;;;;5064544;28;20603;-69
2023/09/11 03:58:51;;;;;;;14.73;11.17;;;;;14.40;96935.00;;;;5066382;28;20212;-68
2023/09/11 04:01:42;;;;;;;13.47;10.90;;;;;14.60;96940.00;;;;5070199;28;20192;-69
2023/09/11 04:04:31;;;;;;;14.00;11.63;;;;;14.60;96934.00;;;;5072696;28;20608;-68
2023/09/11 04:07:20;;;;;;;17.03;12.83;;;;;14.60;96936.00;;;;5067916;28;20218;-68
2023/09/11 04:10:09;;;;;;;14.60;12.47;;;;;14.50;96936.00;;;;5065347;28;20227;-70
2023/09/11 04:12:58;;;;;;;16.73;11.87;;;;;14.40;96936.00;;;;5069162;28;20203;-69
2023/09/11 04:15:47;;;;;;;14.23;12.03;;;;;14.60;96938.00;;;;5067921;28;20224;-69
2023/09/11 04:18:38;;;;;;;12.40;10.97;;;;;14.40;96929.00;;;;5068888;28;20200;-68
2023/09/11 04:21:27;;;;;;;17.60;11.83;;;;;14.40;96932.00;;;;5065727;28;20218;-70
2023/09/11 04:24:16;;;;;;;14.70;11.80;;;;;14.30;96929.00;;;;5068121;28;20198;-70
2023/09/11 04:27:06;;;;;;;16.97;12.97;;;;;14.50;96927.00;;;;5067681;28;20200;-69
2023/09/11 04:29:56;;;;;;;15.97;13.00;;;;;14.50;96921.00;;;;5068835;28;20228;-67
2023/09/11 04:32:45;;;;;;;13.13;11.77;;;;;14.40;96926.00;;;;5064831;28;20268;-68
2023/09/11 04:35:35;;;;;;;16.40;12.73;;;;;14.60;96929.00;;;;5069042;28;20199;-68
2023/09/11 04:38:24;;;;;;;13.57;11.77;;;;;14.60;96924.00;;;;5067699;28;20653;-69
2023/09/11 04:41:15;;;;;;;18.77;13.23;;;;;14.30;96919.00;;;;5063152;28;20843;-68
2023/09/11 04:44:05;;;;;;;30.30;17.57;;;;;14.30;96926.00;;;;5063679;28;20718;-70
2023/09/11 04:46:54;;;;;;;25.93;16.10;;;;;14.20;96923.00;;;;5065920;28;20211;-69
2023/09/11 04:49:43;;;;;;;43.47;21.60;;;;;14.20;96920.00;;;;5066435;28;20785;-68
2023/09/11 04:52:33;;;;;;;86.00;33.40;;;;;14.80;96928.00;;;;5068593;28;20227;-68
2023/09/11 04:55:22;;;;;;;70.50;34.73;;;;;14.80;96927.00;;;;5065657;28;20208;-68
2023/09/11 04:58:12;;;;;;;68.93;34.27;;;;;14.70;96932.00;;;;5064573;28;20216;-69
2023/09/11 05:01:02;;;;;;;38.83;21.33;;;;;14.40;96925.00;;;;5070253;28;20235;-70
2023/09/11 05:03:51;;;;;;;29.10;17.73;;;;;14.20;96920.00;;;;5067628;28;20208;-70
2023/09/11 05:06:40;;;;;;;28.83;16.43;;;;;14.50;96930.00;;;;5064069;28;20574;-68
2023/09/11 05:09:31;;;;;;;30.50;21.27;;;;;14.60;96929.00;;;;5062742;28;20676;-70
2023/09/11 05:12:20;;;;;;;28.80;19.33;;;;;14.90;96929.00;;;;5066566;28;20211;-69
2023/09/11 05:15:09;;;;;;;35.63;23.90;;;;;15.00;96923.00;;;;5067529;28;20203;-70
2023/09/11 05:17:58;;;;;;;31.30;23.80;;;;;15.50;96938.00;;;;5063225;28;20234;-69
2023/09/11 05:20:50;;;;;;;20.53;17.63;;;;;15.20;96923.00;;;;5075193;28;20696;-68
2023/09/11 05:23:42;;;;;;;21.50;15.97;;;;;14.80;96918.00;;;;5072558;28;20208;-67
2023/09/11 05:26:33;;;;;;;17.70;14.73;;;;;14.90;96927.00;;;;5068240;28;20200;-70
2023/09/11 05:29:22;;;;;;;16.17;14.47;;;;;15.00;96924.00;;;;5068434;28;20294;-70
2023/09/11 05:32:11;;;;;;;30.57;19.57;;;;;15.00;96921.00;;;;5064559;28;20673;-68
2023/09/11 05:35:00;;;;;;;22.53;14.97;;;;;15.20;96918.00;;;;5065781;28;20208;-67
2023/09/11 05:37:49;;;;;;;23.70;14.60;;;;;14.80;96928.00;;;;5065060;28;20222;-69
2023/09/11 05:40:38;;;;;;;16.93;13.13;;;;;15.00;96932.00;;;;5067777;28;20684;-69
2023/09/11 05:43:28;;;;;;;14.00;12.23;;;;;15.00;96921.00;;;;5066164;28;20723;-70
2023/09/11 05:46:17;;;;;;;20.43;14.10;;;;;14.80;96938.00;;;;5063536;28;20273;-68
2023/09/11 05:49:06;;;;;;;19.60;13.17;;;;;14.90;96930.00;;;;5065945;28;20269;-67
2023/09/11 05:51:55;;;;;;;19.43;13.77;;;;;15.50;96935.00;;;;5067126;28;20276;-69
2023/09/11 05:54:44;;;;;;;17.67;13.37;;;;;15.90;96934.00;;;;5067753;28;20477;-68
2023/09/11 05:57:33;;;;;;;16.53;13.63;;;;;15.70;96938.00;;;;5067626;28;20602;-69
2023/09/11 06:00:24;;;;;;;22.97;13.67;;;;;16.00;96930.00;;;;5072303;28;20231;-68
2023/09/11 06:03:13;;;;;;;16.07;14.37;;;;;16.30;96930.00;;;;5066554;28;20211;-70
2023/09/11 06:06:02;;;;;;;17.70;13.37;;;;;16.60;96927.00;;;;5066736;28;20685;-70
2023/09/11 06:08:51;;;;;;;14.73;13.20;;;;;16.50;96936.00;;;;5071344;28;20823;-70
2023/09/11 06:11:40;;;;;;;16.13;14.13;;;;;16.70;96935.00;;;;5075157;28;20200;-69
2023/09/11 06:14:29;;;;;;;14.10;11.87;;;;;16.60;96938.00;;;;5075864;28;20207;-67
2023/09/11 06:17:19;;;;;;;15.73;12.37;;;;;16.80;96933.00;;;;5068903;28;20232;-70
2023/09/11 06:20:15;;;;;;;15.13;12.67;;;;;16.80;96926.00;;;;5070253;28;20228;-69
2023/09/11 06:23:04;;;;;;;16.87;13.47;;;;;17.00;96921.00;;;;5067820;28;20212;-69
2023/09/11 06:25:54;;;;;;;16.90;13.37;;;;;17.10;96934.00;;;;5070196;28;20226;-69
2023/09/11 06:28:43;;;;;;;15.30;13.30;;;;;17.50;96934.00;;;;5074543;28;20196;-68
2023/09/11 06:31:32;;;;;;;14.83;12.57;;;;;17.70;96930.00;;;;5076639;28;20207;-69
2023/09/11 06:34:22;;;;;;;14.33;12.33;;;;;17.80;96927.00;;;;5072673;28;20691;-69
2023/09/11 06:37:11;;;;;;;16.17;12.57;;;;;18.20;96935.00;;;;5066379;28;20223;-69
2023/09/11 06:40:00;;;;;;;20.90;13.53;;;;;18.50;96933.00;;;;5072437;28;20223;-69
2023/09/11 06:42:49;;;;;;;16.63;12.57;;;;;18.60;96929.00;;;;5068861;28;20196;-70
2023/09/11 06:45:38;;;;;;;14.67;12.30;;;;;19.00;96936.00;;;;5070754;28;20208;-69
2023/09/11 06:48:28;;;;;;;15.13;11.67;;;;;18.90;96933.00;;;;5074943;28;20200;-69
2023/09/11 06:51:19;;;;;;;12.97;11.63;;;;;19.20;96934.00;;;;5071482;28;20204;-69
2023/09/11 06:54:12;;;;;;;17.17;11.60;;;;;19.30;96935.00;;;;5070652;28;20216;-70
2023/09/11 06:57:01;;;;;;;17.90;12.07;;;;;19.70;96941.00;;;;5069455;28;20204;-69
2023/09/11 06:59:50;;;;;;;12.40;10.93;;;;;19.50;96943.00;;;;5074048;22;20686;-66
2023/09/11 07:02:40;;;;;;;17.33;11.20;;;;;19.90;96938.00;;;;5030327;28;20201;-66
2023/09/11 07:05:29;;;;;;;13.03;10.93;;;;;20.10;96938.00;;;;5036554;28;20293;-65
2023/09/11 07:08:19;;;;;;;14.00;11.57;;;;;20.40;96942.00;;;;5038400;28;20202;-66
2023/09/11 07:11:08;;;;;;;13.23;11.43;;;;;20.70;96943.00;;;;5018375;28;20233;-65
2023/09/11 07:13:57;;;;;;;16.50;10.50;;;;;20.90;96944.00;;;;5010593;28;20213;-66
2023/09/11 07:16:46;;;;;;;16.87;11.47;;;;;21.00;96948.00;;;;5011211;28;20690;-65
2023/09/11 07:19:35;;;;;;;12.93;10.07;;;;;21.30;96944.00;;;;5017107;28;20610;-66
2023/09/11 07:22:24;;;;;;;11.57;9.67;;;;;21.10;96934.00;;;;5023167;28;20205;-66
2023/09/11 07:25:17;;;;;;;15.37;11.30;;;;;21.60;96936.00;;;;5010275;28;20203;-66
2023/09/11 07:28:07;;;;;;;15.17;9.83;;;;;21.70;96940.00;;;;5007544;28;20837;-66
2023/09/11 07:30:56;;;;;;;11.67;10.03;;;;;21.70;96935.00;;;;5004945;28;20226;-65
2023/09/11 07:33:45;;;;;;;15.63;9.17;;;;;22.20;96940.00;;;;5019613;28;20291;-65
2023/09/11 07:36:34;;;;;;;17.60;9.23;;;;;22.10;96935.00;;;;5011948;28;20210;-66
2023/09/11 07:39:23;;;;;;;17.00;10.07;;;;;22.40;96932.00;;;;5013495;28;20217;-66
2023/09/11 07:42:13;;;;;;;14.17;9.27;;;;;22.90;96941.00;;;;5015516;28;20205;-66
2023/09/11 07:45:02;;;;;;;15.67;10.90;;;;;22.90;96937.00;;;;5004817;28;20217;-66
2023/09/11 07:47:51;;;;;;;13.47;10.47;;;;;23.10;96929.00;;;;5011161;28;20583;-66
2023/09/11 07:50:40;;;;;;;11.10;8.87;;;;;23.40;96927.00;;;;5009962;28;20226;-65
2023/09/11 07:53:30;;;;;;;12.40;9.37;;;;;23.70;96934.00;;;;5017060;28;20222;-65
2023/09/11 07:56:19;;;;;;;12.07;9.30;;;;;23.50;96921.00;;;;5016389;28;20487;-65
2023/09/11 07:59:09;;;;;;;11.50;9.37;;;;;23.70;96927.00;;;;5017294;28;20204;-66
2023/09/11 08:01:58;;;;;;;10.37;8.33;;;;;23.60;96925.00;;;;5009950;28;20221;-66
2023/09/11 08:04:47;;;;;;;12.53;9.00;;;;;23.50;96914.00;;;;5014888;28;20245;-66
2023/09/11 08:07:36;;;;;;;14.87;9.13;;;;;24.20;96919.00;;;;5016423;28;20220;-65
2023/09/11 08:10:27;;;;;;;12.03;9.47;;;;;24.00;96914.00;;;;5015089;28;20229;-65
2023/09/11 08:13:16;;;;;;;10.43;8.67;;;;;24.40;96918.00;;;;5012700;28;20214;-65
2023/09/11 08:16:07;;;;;;;18.23;9.40;;;;;24.60;96914.00;;;;5008595;28;20210;-65
2023/09/11 08:18:56;;;;;;;10.53;9.33;;;;;24.60;96905.00;;;;5013256;28;20197;-66
2023/09/11 08:21:45;;;;;;;17.17;9.23;;;;;25.00;96917.00;;;;5012616;28;20224;-66
2023/09/11 08:24:34;;;;;;;10.47;9.37;;;;;25.20;96912.00;;;;5014731;28;20209;-66
2023/09/11 08:27:23;;;;;;;10.37;7.80;;;;;24.90;96904.00;;;;5017501;28;20275;-66
2023/09/11 08:30:13;;;;;;;12.80;9.37;;;;;25.50;96910.00;;;;5015757;28;20228;-66
2023/09/11 08:33:04;;;;;;;10.83;9.07;;;;;25.20;96906.00;;;;5005538;28;20285;-67
2023/09/11 08:35:53;;;;;;;13.07;8.27;;;;;25.80;96898.00;;;;4997901;28;20206;-66
2023/09/11 08:38:44;;;;;;;10.10;8.40;;;;;26.10;96902.00;;;;5005933;28;20237;-67
2023/09/11 08:41:34;;;;;;;9.80;8.80;;;;;26.40;96910.00;;;;5007051;28;20209;-66
2023/09/11 08:44:23;;;;;;;9.00;8.10;;;;;26.30;96901.00;;;;5006433;28;20205;-66
2023/09/11 08:47:13;;;;;;;10.13;8.03;;;;;26.80;96905.00;;;;5009657;28;20214;-65
2023/09/11 08:50:08;;;;;;;12.47;9.47;;;;;27.00;96906.00;;;;5009136;28;20229;-66
2023/09/11 08:52:59;;;;;;;11.97;9.67;;;;;26.90;96894.00;;;;5004604;28;20206;-66
2023/09/11 08:55:48;;;;;;;12.17;9.00;;;;;26.90;96902.00;;;;5007704;28;20209;-66
2023/09/11 08:58:38;;;;;;;9.77;8.47;;;;;27.30;96905.00;;;;5007726;28;20221;-66
2023/09/11 09:01:28;;;;;;;11.50;8.77;;;;;27.50;96901.00;;;;5006766;28;20705;-65
2023/09/11 09:04:18;;;;;;;9.33;8.33;;;;;27.50;96899.00;;;;5006548;28;20202;-65
2023/09/11 09:07:08;;;;;;;10.67;8.83;;;;;27.60;96897.00;;;;5009346;28;20206;-66
2023/09/11 09:09:58;;;;;;;8.53;7.63;;;;;27.90;96905.00;;;;5007225;28;20615;-66
2023/09/11 09:12:47;;;;;;;10.50;8.37;;;;;28.10;96900.00;;;;5007438;28;20207;-68
2023/09/11 09:15:40;;;;;;;13.90;9.50;;;;;28.20;96900.00;;;;5013336;28;20241;-66
2023/09/11 09:18:29;;;;;;;8.70;7.80;;;;;28.40;96900.00;;;;5014138;28;20208;-67
2023/09/11 09:21:18;;;;;;;10.53;8.17;;;;;28.60;96895.00;;;;5017793;28;20240;-66
2023/09/11 09:24:12;;;;;;;10.53;8.53;;;;;28.90;96890.00;;;;5008250;28;20204;-67
2023/09/11 09:27:04;;;;;;;13.70;8.20;;;;;29.00;96890.00;;;;5005922;28;20215;-67
2023/09/11 09:29:53;;;;;;;15.70;7.53;;;;;29.10;96888.00;;;;5008047;28;20236;-66
2023/09/11 09:32:42;;;;;;;10.03;8.33;;;;;29.40;96893.00;;;;5007571;28;20212;-66
2023/09/11 09:35:33;;;;;;;7.97;7.23;;;;;29.50;96875.00;;;;5016097;28;20207;-67
2023/09/11 09:38:22;;;;;;;10.37;7.90;;;;;29.40;96868.00;;;;5004708;28;20207;-67
2023/09/11 09:41:12;;;;;;;8.87;7.97;;;;;29.80;96875.00;;;;5008153;28;20632;-66
2023/09/11 09:44:01;;;;;;;9.87;7.23;;;;;29.90;96867.00;;;;5006604;28;20204;-67
2023/09/11 09:46:50;;;;;;;8.20;7.07;;;;;29.80;96873.00;;;;5006262;28;20213;-66
2023/09/11 09:49:45;;;;;;;9.70;7.30;;;;;30.00;96862.00;;;;5007199;28;20237;-67
2023/09/11 09:52:34;;;;;;;9.50;6.97;;;;;30.50;96863.00;;;;5007052;28;20591;-67
2023/09/11 09:55:24;;;;;;;12.87;9.33;;;;;30.70;96854.00;;;;5007044;28;21021;-67
2023/09/11 09:58:15;;;;;;;10.37;7.27;;;;;31.10;96856.00;;;;5009429;28;20580;-66
2023/09/11 10:01:06;;;;;;;9.43;7.47;;;;;31.20;96855.00;;;;5007563;28;20274;-67
2023/09/11 10:03:55;;;;;;;10.13;7.33;;;;;31.00;96847.00;;;;5002259;28;20204;-66
2023/09/11 10:06:54;;;;;;;9.17;7.47;;;;;31.00;96843.00;;;;5007339;28;20215;-66
2023/09/11 10:09:43;;;;;;;9.10;7.57;;;;;31.60;96834.00;;;;4995039;28;20725;-66
2023/09/11 10:12:32;;;;;;;9.73;6.70;;;;;32.10;96839.00;;;;4995178;28;20216;-66
2023/09/11 10:15:24;;;;;;;7.10;6.03;;;;;31.60;96844.00;;;;4995379;28;20195;-66
2023/09/11 10:18:14;;;;;;;7.23;6.53;;;;;31.90;96838.00;;;;5003758;28;20230;-66
2023/09/11 10:21:03;;;;;;;8.47;7.67;;;;;32.30;96830.00;;;;5002291;28;20254;-67
2023/09/11 10:23:53;;;;;;;10.50;7.47;;;;;31.90;96828.00;;;;5006455;28;20209;-66
2023/09/11 10:26:47;;;;;;;9.33;7.03;;;;;32.30;96816.00;;;;5006407;28;20211;-67
2023/09/11 10:29:44;;;;;;;10.43;6.97;;;;;32.70;96818.00;;;;5006779;28;20243;-66
2023/09/11 10:32:41;;;;;;;7.70;6.97;;;;;33.10;96813.00;;;;5006014;28;20632;-66
2023/09/11 10:35:32;;;;;;;8.10;6.87;;;;;33.10;96807.00;;;;5008418;28;20582;-66
2023/09/11 10:38:21;;;;;;;7.93;7.13;;;;;33.30;96804.00;;;;5006342;28;20206;-67
2023/09/11 10:41:10;;;;;;;8.95;7.18;;;;;33.70;96795.00;;;;5006669;28;20239;-67
2023/09/11 10:43:59;;;;;;;8.32;6.38;;;;;33.80;96798.00;;;;5006147;28;20830;-66
2023/09/11 10:46:52;;;;;;;7.38;6.53;;;;;33.90;96797.00;;;;5010984;28;20217;-66
2023/09/11 10:49:43;;;;;;;8.68;6.20;;;;;34.00;96791.00;;;;5010167;28;20237;-66
2023/09/11 10:52:32;;;;;;;7.57;6.72;;;;;34.20;96788.00;;;;5009287;28;20209;-67
2023/09/11 10:55:23;;;;;;;8.07;6.82;;;;;34.60;96780.00;;;;5008124;28;20212;-67
2023/09/11 10:58:12;;;;;;;8.32;5.95;;;;;34.80;96781.00;;;;5007560;28;20213;-67
2023/09/11 11:01:02;;;;;;;9.05;5.55;;;;;35.00;96780.00;;;;5009644;28;20237;-66
2023/09/11 11:03:51;;;;;;;6.65;6.00;;;;;34.70;96785.00;;;;5009503;28;20601;-66
2023/09/11 11:06:45;;;;;;;9.40;6.80;;;;;34.50;96778.00;;;;5009145;28;20613;-67
2023/09/11 11:09:35;;;;;;;8.40;7.00;;;;;34.90;96772.00;;;;5009627;28;20240;-67
2023/09/11 11:12:32;;;;;;;6.22;5.65;;;;;35.20;96776.00;;;;5010651;28;20216;-66
2023/09/11 11:15:24;;;;;;;5.53;5.03;;;;;35.70;96774.00;;;;5006726;28;20209;-67
2023/09/11 11:18:15;;;;;;;5.68;5.18;;;;;35.40;96775.00;;;;5008366;28;20212;-67
2023/09/11 11:21:05;;;;;;;9.57;6.57;;;;;35.00;96766.00;;;;5009732;28;20240;-67
2023/09/11 11:24:00;;;;;;;7.60;6.10;;;;;35.90;96774.00;;;;5009055;28;20213;-67
2023/09/11 11:26:49;;;;;;;5.95;5.45;;;;;36.00;96774.00;;;;5015948;28;20216;-67
2023/09/11 11:29:39;;;;;;;9.40;5.90;;;;;35.70;96779.00;;;;5009545;28;20225;-66
2023/09/11 11:32:29;;;;;;;6.13;5.53;;;;;36.10;96774.00;;;;5009709;28;20201;-67
2023/09/11 11:35:19;;;;;;;6.97;4.95;;;;;36.40;96769.00;;;;5009202;28;20204;-67
2023/09/11 11:38:08;;;;;;;6.60;5.72;;;;;35.70;96771.00;;;;5010102;28;20205;-67
2023/09/11 11:40:58;;;;;;;8.10;5.63;;;;;36.50;96768.00;;;;5009598;28;20217;-67
2023/09/11 11:43:47;;;;;;;5.57;5.07;;;;;34.20;96759.00;;;;5011260;28;20208;-68
2023/09/11 11:46:37;;;;;;;7.07;5.30;;;;;34.20;96768.00;;;;5008496;28;20561;-67
2023/09/11 11:49:27;;;;;;;6.60;5.80;;;;;35.40;96763.00;;;;5008456;28;20224;-67
2023/09/11 11:52:16;;;;;;;5.53;5.07;;;;;36.50;96762.00;;;;5009834;28;20218;-67
2023/09/11 11:55:19;;;;;;;6.85;5.15;;;;;36.80;96765.00;;;;5008723;28;20216;-67
2023/09/11 11:58:12;;;;;;;10.52;5.78;;;;;36.70;96757.00;;;;5010467;28;20197;-67
2023/09/11 12:01:03;;;;;;;7.38;5.15;;;33.40;67.80;36.80;96758.00;;;;5009890;28;20583;-67
2023/09/11 12:03:52;;;;;;;4.95;4.28;;;33.60;66.00;36.10;96752.00;;;;5008407;28;20204;-66
2023/09/11 12:06:42;;;;;;;6.07;5.38;;;33.60;60.10;37.00;96753.00;;;;5009228;28;20204;-67
2023/09/11 12:09:31;;;;;;;7.13;4.68;;;33.70;61.50;34.30;96752.00;;;;5008567;28;20225;-69
2023/09/11 12:12:20;;;;;;;6.32;5.72;;;;;34.40;96742.00;;;;5007856;28;20213;-66
2023/09/11 12:15:11;;;;;;;7.65;5.97;;;;;34.70;96742.00;;;;5008284;28;20213;-67
2023/09/11 12:18:01;;;;;;;8.55;5.25;;;;;36.60;96742.00;;;;5007366;28;21378;-67
2023/09/11 12:20:54;;;;;;;8.55;5.35;;;;;33.80;96744.00;;;;5007954;28;20249;-70
2023/09/11 12:23:43;;;;;;;6.25;5.30;;;;;34.60;96728.00;;;;5004161;28;20679;-67
2023/09/11 12:26:32;;;;;;;7.20;5.03;;;;;35.70;96728.00;;;;5005410;28;20213;-67
2023/09/11 12:29:22;;;;;;;9.20;6.22;;;32.80;62.60;36.80;96733.00;;;;5004457;28;20222;-66
2023/09/11 12:32:12;;;;;;;8.35;6.05;;;32.80;63.90;35.90;96734.00;;;;5008895;28;20576;-67
2023/09/11 12:35:01;;;;;;;5.47;4.43;;;33.20;60.60;37.10;96736.00;;;;5009994;28;20217;-67
2023/09/11 12:37:50;;;;;;;6.07;5.47;;;33.40;61.30;35.50;96743.00;;;;5001400;28;20205;-66
2023/09/11 12:40:39;;;;;;;6.55;5.32;;;33.40;58.10;36.10;96730.00;;;;5001180;28;20833;-68
2023/09/11 12:43:29;;;;;;;5.50;4.60;;;33.70;58.60;35.20;96731.00;;;;4998845;28;20240;-67
2023/09/11 12:46:18;;;;;;;8.60;5.60;;;33.30;56.00;36.00;96732.00;;;;4999791;28;20202;-67
2023/09/11 12:49:09;;;;;;;5.18;4.63;;;33.30;58.80;34.70;96733.00;;;;5001827;28;20225;-68
2023/09/11 12:51:57;;;;;;;5.45;4.95;;;32.90;57.00;37.00;96730.00;;;;5001523;28;21119;-66
2023/09/11 12:54:46;;;;;;;5.25;4.75;;;33.00;58.60;37.30;96732.00;;;;4999968;28;20227;-67
2023/09/11 12:57:35;;;;;;;7.15;5.95;;;33.50;58.70;37.40;96731.00;;;;5001494;28;20215;-66
2023/09/11 13:00:28;;;;;;;8.45;5.25;;;33.70;60.10;36.00;96731.00;;;;5051081;22;20235;-73
2023/09/11 13:03:17;;;;;;;5.55;5.05;;;33.90;58.10;36.20;96718.00;;;;5059127;28;20209;-71
2023/09/11 13:06:08;;;;;;;7.22;5.35;;;33.90;58.10;36.60;96721.00;;;;5059718;28;20235;-71
2023/09/11 13:08:57;;;;;;;6.35;4.97;;;33.80;58.40;35.90;96725.00;;;;5060715;28;20202;-71
2023/09/11 13:11:46;;;;;;;6.55;4.90;;;33.80;57.00;36.40;96716.00;;;;5039576;28;20197;-71
2023/09/11 13:14:35;;;;;;;5.05;4.55;;;33.90;55.80;36.50;96722.00;;;;5040558;28;20215;-72
2023/09/11 13:17:24;;;;;;;7.65;5.38;;;33.70;55.20;37.80;96708.00;;;;5039987;28;20204;-71
2023/09/11 13:20:13;;;;;;;5.22;4.82;;;34.00;57.30;38.70;96709.00;;;;5038378;28;20246;-71
2023/09/11 13:23:04;;;;;;;6.78;5.07;;;34.50;56.50;39.20;96704.00;;;;5038981;28;20242;-71
2023/09/11 13:25:53;;;;;;;8.02;5.90;;;35.00;57.90;36.70;96702.00;;;;5040782;28;20977;-71
2023/09/11 13:28:41;;;;;;;6.63;5.38;;;35.10;57.80;35.20;96708.00;;;;5038896;28;20200;-72
2023/09/11 13:31:30;;;;;;;6.82;6.22;;;34.20;58.10;37.60;96708.00;;;;5037170;28;20232;-69
2023/09/11 13:34:19;;;;;;;6.93;6.20;;;34.10;59.50;39.00;96701.00;;;;5038880;28;20696;-70
2023/09/11 13:37:07;;;;;;;6.45;5.85;;;34.50;60.10;38.60;96704.00;;;;5038058;28;20196;-71
2023/09/11 13:39:58;;;;;;;6.28;5.72;;;34.90;58.80;39.80;96707.00;;;;5039482;28;20678;-70
2023/09/11 13:42:49;;;;;;;6.95;5.90;;;35.30;59.00;40.50;96701.00;;;;5037505;28;20196;-70
2023/09/11 13:45:40;;;;;;;5.65;5.15;;;35.90;59.10;40.80;96705.00;;;;5039092;28;20599;-70